Airfield :
LOGIN :

Register | Disclaimer

   EN    FR    IT 

 










Legend :    VFR   Marginal VFR   IFR   Intensive IFR   Very Intensive IFR
Visi :
Ceiling :
>= 8 km
>= 3000ft
5 to 8 km
1000 to 3000 ft
1500m to 5 km
500 to 1000 ft
800 to 1500m
200 to 500 ft
< 800m
< 200 ft
Symbols :   Thunderstorms  Fog  Heavy snow  Heavy precipitations  Wind > 20 kt
SIGMETs :     Misc.  Thunderstorms  Icing  Turbulence  Mountain Waves  Volcanic Ashes






- Airport Elevation : 1036 ft
- IATA code : CLJ


LRCL - Cluj-Napoca International

CURRENT METAR :
  • 240600Z 28013KT 9999 FEW030 FEW040CB 06/04 Q1009 R07/29//95

EXPIRED METARs :
  • 240530Z 30013KT 9999 -SHRA BKN035CB 05/03 Q1008 R07/29//95
  • 240500Z 33016KT 7000 -SHRA BKN035CB 05/03 Q1008 R07/29//95
  • 240430Z 34017KT 7000 -SHRA BKN030CB 06/04 Q1007 R07/29//95
  • 240400Z 35016KT 9999 -SHRA BKN033CB 07/05 Q1006 RERA R07/29//95
  • 240330Z 28021G31KT 9999 FEW040 13/05 Q1003 R07/29//95

TAF TAF LRCL
Valid from the 24 at 06:00 until the 24 at 15:00 UTC


240500Z 2406/2415 34018KT 9999 BKN060
TEMPO 2406/2410 32020G35KT 5000 SHRA SCT015 BKN030CB OVC050



MET'MAP, your aeronautical weather chart ! - Copyright ORBIFLY December 2007 - Disclaimer

ORBIFLY MET'MAP TEAM :

Programming & Development : Alexandra Zaïnal
Concept & original design : Baudouin d'Aumeries
Assistance for programming : Marc-Olivier Méhu
Technical & hardware support : Manuel Goepfert

Contact : metmap@orbifly.com




SOURCES & CREDITS :

   NOAA